sensor_id;sensor_type;location;lat;lon;timestamp;temperature;humidity
53844;DHT22;39744;53.314;5.710;2023-02-01T00:01:17;6.10;99.90
53844;DHT22;39744;53.314;5.710;2023-02-01T00:03:42;6.10;99.90
53844;DHT22;39744;53.314;5.710;2023-02-01T00:06:08;6.00;99.90
53844;DHT22;39744;53.314;5.710;2023-02-01T00:08:33;6.00;99.90
53844;DHT22;39744;53.314;5.710;2023-02-01T00:11:00;5.80;99.90
53844;DHT22;39744;53.314;5.710;2023-02-01T00:13:30;6.00;99.90
53844;DHT22;39744;53.314;5.710;2023-02-01T00:16:06;6.30;99.90
53844;DHT22;39744;53.314;5.710;2023-02-01T00:18:32;6.30;99.90
53844;DHT22;39744;53.314;5.710;2023-02-01T00:20:58;5.90;99.90
53844;DHT22;39744;53.314;5.710;2023-02-01T00:23:23;6.10;99.90
53844;DHT22;39744;53.314;5.710;2023-02-01T00:25:52;6.10;99.90
53844;DHT22;39744;53.314;5.710;2023-02-01T00:28:18;6.20;99.90
53844;DHT22;39744;53.314;5.710;2023-02-01T00:30:43;6.20;99.90
53844;DHT22;39744;53.314;5.710;2023-02-01T00:33:09;6.10;99.90
53844;DHT22;39744;53.314;5.710;2023-02-01T00:35:34;6.10;99.90
53844;DHT22;39744;53.314;5.710;2023-02-01T00:38:00;6.30;99.90
53844;DHT22;39744;53.314;5.710;2023-02-01T00:40:26;6.10;99.90
53844;DHT22;39744;53.314;5.710;2023-02-01T00:42:51;6.20;99.90
53844;DHT22;39744;53.314;5.710;2023-02-01T00:45:17;6.10;99.90
53844;DHT22;39744;53.314;5.710;2023-02-01T00:47:43;6.20;99.90
53844;DHT22;39744;53.314;5.710;2023-02-01T00:50:09;6.00;99.90
53844;DHT22;39744;53.314;5.710;2023-02-01T00:52:34;6.40;99.90
53844;DHT22;39744;53.314;5.710;2023-02-01T00:55:00;6.10;99.90
53844;DHT22;39744;53.314;5.710;2023-02-01T00:57:25;6.10;99.90
53844;DHT22;39744;53.314;5.710;2023-02-01T00:59:51;6.40;99.90
53844;DHT22;39744;53.314;5.710;2023-02-01T01:02:16;6.20;99.90
53844;DHT22;39744;53.314;5.710;2023-02-01T01:04:42;6.20;99.90
53844;DHT22;39744;53.314;5.710;2023-02-01T01:07:07;6.30;99.90
53844;DHT22;39744;53.314;5.710;2023-02-01T01:09:34;6.20;99.90
53844;DHT22;39744;53.314;5.710;2023-02-01T01:11:59;6.10;99.90
53844;DHT22;39744;53.314;5.710;2023-02-01T01:14:28;5.70;99.90
53844;DHT22;39744;53.314;5.710;2023-02-01T01:16:54;6.20;99.90
53844;DHT22;39744;53.314;5.710;2023-02-01T01:19:19;6.00;99.90
53844;DHT22;39744;53.314;5.710;2023-02-01T01:21:45;6.10;99.90
53844;DHT22;39744;53.314;5.710;2023-02-01T01:24:10;6.10;99.90
53844;DHT22;39744;53.314;5.710;2023-02-01T01:26:36;6.10;99.90
53844;DHT22;39744;53.314;5.710;2023-02-01T01:29:01;6.10;99.90
53844;DHT22;39744;53.314;5.710;2023-02-01T01:31:27;6.00;99.90
53844;DHT22;39744;53.314;5.710;2023-02-01T01:33:54;6.00;99.90
53844;DHT22;39744;53.314;5.710;2023-02-01T01:36:20;6.00;99.90
53844;DHT22;39744;53.314;5.710;2023-02-01T01:38:46;6.00;99.90
53844;DHT22;39744;53.314;5.710;2023-02-01T01:41:13;6.00;99.90
53844;DHT22;39744;53.314;5.710;2023-02-01T01:46:32;6.20;99.90
53844;DHT22;39744;53.314;5.710;2023-02-01T01:49:00;6.00;99.90
53844;DHT22;39744;53.314;5.710;2023-02-01T01:51:26;6.00;99.90
53844;DHT22;39744;53.314;5.710;2023-02-01T01:53:58;6.00;99.90
53844;DHT22;39744;53.314;5.710;2023-02-01T01:56:25;5.90;99.90
53844;DHT22;39744;53.314;5.710;2023-02-01T01:58:51;6.00;99.90
53844;DHT22;39744;53.314;5.710;2023-02-01T02:01:17;6.00;99.90
53844;DHT22;39744;53.314;5.710;2023-02-01T02:03:43;6.00;99.90
53844;DHT22;39744;53.314;5.710;2023-02-01T02:06:56;6.10;99.90
53844;DHT22;39744;53.314;5.710;2023-02-01T02:08:55;6.20;99.90
53844;DHT22;39744;53.314;5.710;2023-02-01T02:11:21;6.00;99.90
53844;DHT22;39744;53.314;5.710;2023-02-01T02:13:48;6.00;99.90
53844;DHT22;39744;53.314;5.710;2023-02-01T02:16:27;6.10;99.90
53844;DHT22;39744;53.314;5.710;2023-02-01T02:24:32;6.20;99.90
53844;DHT22;39744;53.314;5.710;2023-02-01T02:27:05;6.20;99.90
53844;DHT22;39744;53.314;5.710;2023-02-01T02:29:52;6.20;99.90
53844;DHT22;39744;53.314;5.710;2023-02-01T02:35:07;6.00;99.90
53844;DHT22;39744;53.314;5.710;2023-02-01T02:37:40;6.20;99.90
53844;DHT22;39744;53.314;5.710;2023-02-01T02:40:10;6.30;99.90
53844;DHT22;39744;53.314;5.710;2023-02-01T02:42:45;6.20;99.90
53844;DHT22;39744;53.314;5.710;2023-02-01T02:48:21;6.20;99.90
53844;DHT22;39744;53.314;5.710;2023-02-01T02:50:51;6.20;99.90
53844;DHT22;39744;53.314;5.710;2023-02-01T02:53:38;6.10;99.90
53844;DHT22;39744;53.314;5.710;2023-02-01T02:56:23;6.10;99.90
53844;DHT22;39744;53.314;5.710;2023-02-01T02:59:09;6.20;99.90
53844;DHT22;39744;53.314;5.710;2023-02-01T03:01:54;6.10;99.90
53844;DHT22;39744;53.314;5.710;2023-02-01T03:04:39;6.20;99.90
53844;DHT22;39744;53.314;5.710;2023-02-01T03:07:45;6.10;99.90
53844;DHT22;39744;53.314;5.710;2023-02-01T03:10:03;6.40;99.90
53844;DHT22;39744;53.314;5.710;2023-02-01T03:12:31;6.20;99.90
53844;DHT22;39744;53.314;5.710;2023-02-01T03:15:17;6.20;99.90
53844;DHT22;39744;53.314;5.710;2023-02-01T03:17:43;6.20;99.90
53844;DHT22;39744;53.314;5.710;2023-02-01T03:20:09;6.30;99.90
53844;DHT22;39744;53.314;5.710;2023-02-01T03:22:36;6.60;99.90
53844;DHT22;39744;53.314;5.710;2023-02-01T03:25:04;6.20;99.90
53844;DHT22;39744;53.314;5.710;2023-02-01T03:27:34;6.30;99.90
53844;DHT22;39744;53.314;5.710;2023-02-01T03:30:06;6.40;99.90
53844;DHT22;39744;53.314;5.710;2023-02-01T03:32:33;6.40;99.90
53844;DHT22;39744;53.314;5.710;2023-02-01T03:35:19;6.20;99.90
53844;DHT22;39744;53.314;5.710;2023-02-01T03:37:46;6.30;99.90
53844;DHT22;39744;53.314;5.710;2023-02-01T03:40:12;6.30;99.90
53844;DHT22;39744;53.314;5.710;2023-02-01T03:42:47;6.30;99.90
53844;DHT22;39744;53.314;5.710;2023-02-01T03:45:13;6.40;99.90
53844;DHT22;39744;53.314;5.710;2023-02-01T03:47:42;6.20;99.90
53844;DHT22;39744;53.314;5.710;2023-02-01T03:50:13;6.10;99.90
53844;DHT22;39744;53.314;5.710;2023-02-01T03:52:45;6.30;99.90
53844;DHT22;39744;53.314;5.710;2023-02-01T03:55:12;6.30;99.90
53844;DHT22;39744;53.314;5.710;2023-02-01T03:57:40;6.20;99.90
53844;DHT22;39744;53.314;5.710;2023-02-01T04:00:08;6.20;99.90
53844;DHT22;39744;53.314;5.710;2023-02-01T04:02:34;6.30;99.90
53844;DHT22;39744;53.314;5.710;2023-02-01T04:04:59;6.10;99.90
53844;DHT22;39744;53.314;5.710;2023-02-01T04:07:25;6.10;99.90
53844;DHT22;39744;53.314;5.710;2023-02-01T04:09:50;6.20;99.90
53844;DHT22;39744;53.314;5.710;2023-02-01T04:12:16;6.20;99.90
53844;DHT22;39744;53.314;5.710;2023-02-01T04:14:41;6.20;99.90
53844;DHT22;39744;53.314;5.710;2023-02-01T04:17:07;6.20;99.90
53844;DHT22;39744;53.314;5.710;2023-02-01T04:19:32;6.20;99.90
53844;DHT22;39744;53.314;5.710;2023-02-01T04:21:58;6.10;99.90
53844;DHT22;39744;53.314;5.710;2023-02-01T04:24:23;6.10;99.90
53844;DHT22;39744;53.314;5.710;2023-02-01T04:26:49;6.00;99.90
53844;DHT22;39744;53.314;5.710;2023-02-01T04:29:14;6.10;99.90
53844;DHT22;39744;53.314;5.710;2023-02-01T04:31:40;6.00;99.90
53844;DHT22;39744;53.314;5.710;2023-02-01T04:34:05;6.00;99.90
53844;DHT22;39744;53.314;5.710;2023-02-01T04:36:31;5.90;99.90
53844;DHT22;39744;53.314;5.710;2023-02-01T04:38:56;5.50;99.90
53844;DHT22;39744;53.314;5.710;2023-02-01T04:41:22;6.20;99.90
53844;DHT22;39744;53.314;5.710;2023-02-01T04:43:48;6.40;99.90
53844;DHT22;39744;53.314;5.710;2023-02-01T04:46:14;6.30;99.90
53844;DHT22;39744;53.314;5.710;2023-02-01T04:48:39;6.30;99.90
53844;DHT22;39744;53.314;5.710;2023-02-01T04:51:05;6.30;99.90
53844;DHT22;39744;53.314;5.710;2023-02-01T04:53:30;6.30;99.90
53844;DHT22;39744;53.314;5.710;2023-02-01T04:55:56;6.30;99.90
53844;DHT22;39744;53.314;5.710;2023-02-01T04:58:22;6.20;99.90
53844;DHT22;39744;53.314;5.710;2023-02-01T05:00:47;6.20;99.90
53844;DHT22;39744;53.314;5.710;2023-02-01T05:03:13;6.20;99.90
53844;DHT22;39744;53.314;5.710;2023-02-01T05:05:38;6.30;99.90
53844;DHT22;39744;53.314;5.710;2023-02-01T05:08:04;6.30;99.90
53844;DHT22;39744;53.314;5.710;2023-02-01T05:10:30;6.30;99.90
53844;DHT22;39744;53.314;5.710;2023-02-01T05:12:55;6.20;99.90
53844;DHT22;39744;53.314;5.710;2023-02-01T05:15:39;6.20;99.90
53844;DHT22;39744;53.314;5.710;2023-02-01T05:18:05;6.20;99.90
53844;DHT22;39744;53.314;5.710;2023-02-01T05:20:30;6.20;99.90
53844;DHT22;39744;53.314;5.710;2023-02-01T05:22:56;6.30;99.90
53844;DHT22;39744;53.314;5.710;2023-02-01T05:25:22;6.20;99.90
53844;DHT22;39744;53.314;5.710;2023-02-01T05:27:47;6.30;99.90
53844;DHT22;39744;53.314;5.710;2023-02-01T05:30:13;6.20;99.90
53844;DHT22;39744;53.314;5.710;2023-02-01T05:32:38;6.20;99.90
53844;DHT22;39744;53.314;5.710;2023-02-01T05:35:04;6.30;99.90
53844;DHT22;39744;53.314;5.710;2023-02-01T05:37:30;6.40;99.90
53844;DHT22;39744;53.314;5.710;2023-02-01T05:39:55;6.20;99.90
53844;DHT22;39744;53.314;5.710;2023-02-01T05:42:21;6.20;99.90
53844;DHT22;39744;53.314;5.710;2023-02-01T05:44:46;6.30;99.90
53844;DHT22;39744;53.314;5.710;2023-02-01T05:47:12;6.20;99.90
53844;DHT22;39744;53.314;5.710;2023-02-01T05:49:37;6.20;99.90
53844;DHT22;39744;53.314;5.710;2023-02-01T05:52:03;6.10;99.90
53844;DHT22;39744;53.314;5.710;2023-02-01T05:54:29;6.20;99.90
53844;DHT22;39744;53.314;5.710;2023-02-01T05:56:54;6.00;99.90
53844;DHT22;39744;53.314;5.710;2023-02-01T05:59:20;6.10;99.90
53844;DHT22;39744;53.314;5.710;2023-02-01T06:01:45;6.00;99.90
53844;DHT22;39744;53.314;5.710;2023-02-01T06:04:11;6.10;99.90
53844;DHT22;39744;53.314;5.710;2023-02-01T06:06:36;6.10;99.90
53844;DHT22;39744;53.314;5.710;2023-02-01T06:09:02;6.10;99.90
53844;DHT22;39744;53.314;5.710;2023-02-01T06:11:28;6.40;99.90
53844;DHT22;39744;53.314;5.710;2023-02-01T06:13:54;6.10;99.90
53844;DHT22;39744;53.314;5.710;2023-02-01T06:16:21;6.20;99.90
53844;DHT22;39744;53.314;5.710;2023-02-01T06:18:46;6.20;99.90
53844;DHT22;39744;53.314;5.710;2023-02-01T06:21:11;6.10;99.90
53844;DHT22;39744;53.314;5.710;2023-02-01T06:23:38;6.10;99.90
53844;DHT22;39744;53.314;5.710;2023-02-01T06:26:05;6.10;99.90
53844;DHT22;39744;53.314;5.710;2023-02-01T06:28:31;6.00;99.90
53844;DHT22;39744;53.314;5.710;2023-02-01T06:30:57;6.20;99.90
53844;DHT22;39744;53.314;5.710;2023-02-01T06:33:23;6.20;99.90
53844;DHT22;39744;53.314;5.710;2023-02-01T06:35:49;6.30;99.90
53844;DHT22;39744;53.314;5.710;2023-02-01T06:38:21;6.30;99.90
53844;DHT22;39744;53.314;5.710;2023-02-01T06:40:51;6.20;99.90
53844;DHT22;39744;53.314;5.710;2023-02-01T06:43:17;6.20;99.90
53844;DHT22;39744;53.314;5.710;2023-02-01T06:45:42;6.20;99.90
53844;DHT22;39744;53.314;5.710;2023-02-01T06:48:08;6.20;99.90
53844;DHT22;39744;53.314;5.710;2023-02-01T06:50:33;6.20;99.90
53844;DHT22;39744;53.314;5.710;2023-02-01T06:53:00;6.10;99.90
53844;DHT22;39744;53.314;5.710;2023-02-01T06:55:25;6.00;99.90
53844;DHT22;39744;53.314;5.710;2023-02-01T06:57:54;6.00;99.90
53844;DHT22;39744;53.314;5.710;2023-02-01T07:00:21;6.30;99.90
53844;DHT22;39744;53.314;5.710;2023-02-01T07:02:47;6.30;99.90
53844;DHT22;39744;53.314;5.710;2023-02-01T07:05:12;6.10;99.90
53844;DHT22;39744;53.314;5.710;2023-02-01T07:07:37;6.00;99.90
53844;DHT22;39744;53.314;5.710;2023-02-01T07:10:03;6.00;99.90
53844;DHT22;39744;53.314;5.710;2023-02-01T07:12:29;6.10;99.90
53844;DHT22;39744;53.314;5.710;2023-02-01T07:14:54;6.00;99.90
53844;DHT22;39744;53.314;5.710;2023-02-01T07:17:20;6.00;99.90
53844;DHT22;39744;53.314;5.710;2023-02-01T07:19:45;6.10;99.90
53844;DHT22;39744;53.314;5.710;2023-02-01T07:22:11;6.10;99.90
53844;DHT22;39744;53.314;5.710;2023-02-01T07:24:36;6.00;99.90
53844;DHT22;39744;53.314;5.710;2023-02-01T07:27:02;6.10;99.90
53844;DHT22;39744;53.314;5.710;2023-02-01T07:29:27;6.10;99.90
53844;DHT22;39744;53.314;5.710;2023-02-01T07:31:53;6.10;99.90
53844;DHT22;39744;53.314;5.710;2023-02-01T07:34:18;6.20;99.90
53844;DHT22;39744;53.314;5.710;2023-02-01T07:36:44;6.20;99.90
53844;DHT22;39744;53.314;5.710;2023-02-01T07:39:09;6.20;99.90
53844;DHT22;39744;53.314;5.710;2023-02-01T07:41:35;6.30;99.90
53844;DHT22;39744;53.314;5.710;2023-02-01T07:44:00;6.20;99.90
53844;DHT22;39744;53.314;5.710;2023-02-01T07:46:26;6.30;99.90
53844;DHT22;39744;53.314;5.710;2023-02-01T07:48:52;6.40;99.90
53844;DHT22;39744;53.314;5.710;2023-02-01T07:51:17;6.20;99.90
53844;DHT22;39744;53.314;5.710;2023-02-01T07:53:43;6.10;99.90
53844;DHT22;39744;53.314;5.710;2023-02-01T07:56:10;6.10;99.90
53844;DHT22;39744;53.314;5.710;2023-02-01T07:58:36;6.00;99.90
53844;DHT22;39744;53.314;5.710;2023-02-01T08:01:01;6.00;99.90
53844;DHT22;39744;53.314;5.710;2023-02-01T08:03:45;6.10;99.90
53844;DHT22;39744;53.314;5.710;2023-02-01T08:06:11;6.20;99.90
53844;DHT22;39744;53.314;5.710;2023-02-01T08:08:37;6.20;99.90
53844;DHT22;39744;53.314;5.710;2023-02-01T08:11:04;6.10;99.90
53844;DHT22;39744;53.314;5.710;2023-02-01T08:13:30;6.30;99.90
53844;DHT22;39744;53.314;5.710;2023-02-01T08:15:59;6.40;99.90
53844;DHT22;39744;53.314;5.710;2023-02-01T08:18:24;6.40;99.90
53844;DHT22;39744;53.314;5.710;2023-02-01T08:20:50;6.00;99.90
53844;DHT22;39744;53.314;5.710;2023-02-01T08:23:16;6.10;99.90
53844;DHT22;39744;53.314;5.710;2023-02-01T08:25:42;6.00;99.90
53844;DHT22;39744;53.314;5.710;2023-02-01T08:28:08;6.10;99.90
53844;DHT22;39744;53.314;5.710;2023-02-01T08:30:33;6.10;99.90
53844;DHT22;39744;53.314;5.710;2023-02-01T08:32:59;6.00;99.90
53844;DHT22;39744;53.314;5.710;2023-02-01T08:35:24;6.10;99.90
53844;DHT22;39744;53.314;5.710;2023-02-01T08:37:50;6.20;99.90
53844;DHT22;39744;53.314;5.710;2023-02-01T08:40:16;6.20;99.90
53844;DHT22;39744;53.314;5.710;2023-02-01T08:42:41;6.40;99.90
53844;DHT22;39744;53.314;5.710;2023-02-01T08:45:17;6.20;99.90
53844;DHT22;39744;53.314;5.710;2023-02-01T08:47:44;6.40;99.90
53844;DHT22;39744;53.314;5.710;2023-02-01T08:50:10;6.20;99.90
53844;DHT22;39744;53.314;5.710;2023-02-01T08:52:35;6.30;99.90
53844;DHT22;39744;53.314;5.710;2023-02-01T08:55:01;6.20;99.90
53844;DHT22;39744;53.314;5.710;2023-02-01T08:57:27;6.10;99.90
53844;DHT22;39744;53.314;5.710;2023-02-01T08:59:52;6.10;99.90
53844;DHT22;39744;53.314;5.710;2023-02-01T09:02:18;6.20;99.90
53844;DHT22;39744;53.314;5.710;2023-02-01T09:04:43;6.20;99.90
53844;DHT22;39744;53.314;5.710;2023-02-01T09:07:09;6.20;99.90
53844;DHT22;39744;53.314;5.710;2023-02-01T09:09:35;6.20;99.90
53844;DHT22;39744;53.314;5.710;2023-02-01T09:12:01;6.00;99.90
53844;DHT22;39744;53.314;5.710;2023-02-01T09:14:27;6.30;99.90
53844;DHT22;39744;53.314;5.710;2023-02-01T09:16:52;6.50;99.90
53844;DHT22;39744;53.314;5.710;2023-02-01T09:19:18;6.20;99.90
53844;DHT22;39744;53.314;5.710;2023-02-01T09:21:43;6.50;99.90
53844;DHT22;39744;53.314;5.710;2023-02-01T09:24:10;6.30;99.90
53844;DHT22;39744;53.314;5.710;2023-02-01T09:26:35;6.60;99.90
53844;DHT22;39744;53.314;5.710;2023-02-01T09:29:01;6.30;99.90
53844;DHT22;39744;53.314;5.710;2023-02-01T09:31:27;6.30;99.90
53844;DHT22;39744;53.314;5.710;2023-02-01T09:33:52;6.30;99.90
53844;DHT22;39744;53.314;5.710;2023-02-01T09:36:18;6.40;99.90
53844;DHT22;39744;53.314;5.710;2023-02-01T09:38:45;6.30;99.90
53844;DHT22;39744;53.314;5.710;2023-02-01T09:41:30;7.50;99.90
53844;DHT22;39744;53.314;5.710;2023-02-01T09:46:30;6.60;99.90
53844;DHT22;39744;53.314;5.710;2023-02-01T09:48:57;6.50;99.90
53844;DHT22;39744;53.314;5.710;2023-02-01T09:51:31;6.40;99.90
53844;DHT22;39744;53.314;5.710;2023-02-01T09:54:00;6.60;99.90
53844;DHT22;39744;53.314;5.710;2023-02-01T09:56:30;6.40;99.90
53844;DHT22;39744;53.314;5.710;2023-02-01T09:59:01;6.50;99.90
53844;DHT22;39744;53.314;5.710;2023-02-01T10:01:26;6.60;99.90
53844;DHT22;39744;53.314;5.710;2023-02-01T10:03:59;6.70;99.90
53844;DHT22;39744;53.314;5.710;2023-02-01T10:19:24;7.00;99.90
53844;DHT22;39744;53.314;5.710;2023-02-01T10:21:59;7.10;99.90
53844;DHT22;39744;53.314;5.710;2023-02-01T10:24:34;7.00;99.90
53844;DHT22;39744;53.314;5.710;2023-02-01T10:27:02;7.00;99.90
53844;DHT22;39744;53.314;5.710;2023-02-01T10:29:36;6.80;99.90
53844;DHT22;39744;53.314;5.710;2023-02-01T10:32:03;7.00;99.90
53844;DHT22;39744;53.314;5.710;2023-02-01T10:34:35;7.00;99.90
53844;DHT22;39744;53.314;5.710;2023-02-01T10:37:13;6.90;99.90
53844;DHT22;39744;53.314;5.710;2023-02-01T10:39:44;7.10;99.90
53844;DHT22;39744;53.314;5.710;2023-02-01T10:42:10;6.80;99.90
53844;DHT22;39744;53.314;5.710;2023-02-01T10:44:35;6.80;99.90
53844;DHT22;39744;53.314;5.710;2023-02-01T10:47:03;6.90;99.90
53844;DHT22;39744;53.314;5.710;2023-02-01T10:49:29;7.00;99.90
53844;DHT22;39744;53.314;5.710;2023-02-01T10:52:04;6.90;99.90
53844;DHT22;39744;53.314;5.710;2023-02-01T10:54:36;7.30;99.90
53844;DHT22;39744;53.314;5.710;2023-02-01T10:57:25;7.20;99.90
53844;DHT22;39744;53.314;5.710;2023-02-01T10:59:51;7.20;99.90
53844;DHT22;39744;53.314;5.710;2023-02-01T11:02:25;7.10;99.90
53844;DHT22;39744;53.314;5.710;2023-02-01T11:05:07;7.10;99.90
53844;DHT22;39744;53.314;5.710;2023-02-01T11:07:38;7.00;99.90
53844;DHT22;39744;53.314;5.710;2023-02-01T11:10:04;6.80;99.90
53844;DHT22;39744;53.314;5.710;2023-02-01T11:12:34;6.90;99.90
53844;DHT22;39744;53.314;5.710;2023-02-01T11:17:45;7.00;99.90
53844;DHT22;39744;53.314;5.710;2023-02-01T11:22:45;7.10;99.90
53844;DHT22;39744;53.314;5.710;2023-02-01T11:25:13;6.90;99.90
53844;DHT22;39744;53.314;5.710;2023-02-01T11:27:39;7.00;99.90
53844;DHT22;39744;53.314;5.710;2023-02-01T11:30:05;7.20;99.90
53844;DHT22;39744;53.314;5.710;2023-02-01T11:32:31;7.20;99.90
53844;DHT22;39744;53.314;5.710;2023-02-01T11:35:06;7.00;99.90
53844;DHT22;39744;53.314;5.710;2023-02-01T11:37:37;7.20;99.90
53844;DHT22;39744;53.314;5.710;2023-02-01T11:42:56;7.30;99.90
53844;DHT22;39744;53.314;5.710;2023-02-01T11:45:29;7.30;99.90
53844;DHT22;39744;53.314;5.710;2023-02-01T11:47:55;7.30;99.90
53844;DHT22;39744;53.314;5.710;2023-02-01T11:57:57;7.40;99.90
53844;DHT22;39744;53.314;5.710;2023-02-01T12:00:33;7.40;99.90
53844;DHT22;39744;53.314;5.710;2023-02-01T12:03:25;7.40;99.90
53844;DHT22;39744;53.314;5.710;2023-02-01T12:05:53;7.40;99.90
53844;DHT22;39744;53.314;5.710;2023-02-01T12:08:33;7.00;99.90
53844;DHT22;39744;53.314;5.710;2023-02-01T12:11:22;7.40;99.90
53844;DHT22;39744;53.314;5.710;2023-02-01T12:14:00;7.40;99.90
53844;DHT22;39744;53.314;5.710;2023-02-01T12:17:06;7.30;99.90
53844;DHT22;39744;53.314;5.710;2023-02-01T12:19:23;7.30;99.90
53844;DHT22;39744;53.314;5.710;2023-02-01T12:21:59;7.30;99.90
53844;DHT22;39744;53.314;5.710;2023-02-01T12:27:27;7.60;99.90
53844;DHT22;39744;53.314;5.710;2023-02-01T12:30:01;7.60;99.90
53844;DHT22;39744;53.314;5.710;2023-02-01T12:37:51;7.70;99.90
53844;DHT22;39744;53.314;5.710;2023-02-01T12:45:56;7.80;99.90
53844;DHT22;39744;53.314;5.710;2023-02-01T12:48:35;7.70;99.90
53844;DHT22;39744;53.314;5.710;2023-02-01T12:51:03;7.60;99.90
53844;DHT22;39744;53.314;5.710;2023-02-01T12:53:42;7.60;99.90
53844;DHT22;39744;53.314;5.710;2023-02-01T12:56:11;7.60;99.90
53844;DHT22;39744;53.314;5.710;2023-02-01T12:58:40;7.30;99.90
53844;DHT22;39744;53.314;5.710;2023-02-01T13:01:09;7.40;99.90
53844;DHT22;39744;53.314;5.710;2023-02-01T13:06:22;7.60;99.90
53844;DHT22;39744;53.314;5.710;2023-02-01T13:11:16;7.50;99.90
53844;DHT22;39744;53.314;5.710;2023-02-01T13:14:00;7.60;99.90
53844;DHT22;39744;53.314;5.710;2023-02-01T13:16:28;7.60;99.90
53844;DHT22;39744;53.314;5.710;2023-02-01T13:18:58;7.60;99.90
53844;DHT22;39744;53.314;5.710;2023-02-01T13:21:25;7.60;99.90
53844;DHT22;39744;53.314;5.710;2023-02-01T13:23:52;7.60;99.90
53844;DHT22;39744;53.314;5.710;2023-02-01T13:26:18;7.60;99.90
53844;DHT22;39744;53.314;5.710;2023-02-01T13:28:47;7.30;99.90
53844;DHT22;39744;53.314;5.710;2023-02-01T13:36:09;7.40;99.90
53844;DHT22;39744;53.314;5.710;2023-02-01T13:41:28;7.60;99.90
53844;DHT22;39744;53.314;5.710;2023-02-01T13:43:58;7.60;99.90
53844;DHT22;39744;53.314;5.710;2023-02-01T13:46:25;7.50;99.90
53844;DHT22;39744;53.314;5.710;2023-02-01T13:48:52;7.30;99.90
53844;DHT22;39744;53.314;5.710;2023-02-01T13:51:31;7.30;99.90
53844;DHT22;39744;53.314;5.710;2023-02-01T13:53:57;7.40;99.90
53844;DHT22;39744;53.314;5.710;2023-02-01T13:56:23;7.30;99.90
53844;DHT22;39744;53.314;5.710;2023-02-01T13:58:49;7.40;99.90
53844;DHT22;39744;53.314;5.710;2023-02-01T14:01:40;7.30;99.90
53844;DHT22;39744;53.314;5.710;2023-02-01T14:04:05;7.30;99.90
53844;DHT22;39744;53.314;5.710;2023-02-01T14:11:45;7.50;99.90
53844;DHT22;39744;53.314;5.710;2023-02-01T14:16:43;7.40;99.90
53844;DHT22;39744;53.314;5.710;2023-02-01T14:19:18;7.40;99.90
53844;DHT22;39744;53.314;5.710;2023-02-01T14:21:48;7.40;99.90
53844;DHT22;39744;53.314;5.710;2023-02-01T14:24:35;7.50;99.90
53844;DHT22;39744;53.314;5.710;2023-02-01T14:27:03;7.60;99.90
53844;DHT22;39744;53.314;5.710;2023-02-01T14:29:42;7.40;99.90
53844;DHT22;39744;53.314;5.710;2023-02-01T14:37:34;7.50;99.90
53844;DHT22;39744;53.314;5.710;2023-02-01T14:44:55;7.50;99.90
53844;DHT22;39744;53.314;5.710;2023-02-01T14:49:53;7.50;99.90
53844;DHT22;39744;53.314;5.710;2023-02-01T14:52:20;7.30;99.90
53844;DHT22;39744;53.314;5.710;2023-02-01T14:54:53;7.30;99.90
53844;DHT22;39744;53.314;5.710;2023-02-01T14:57:20;7.30;99.90
53844;DHT22;39744;53.314;5.710;2023-02-01T14:59:46;7.20;99.90
53844;DHT22;39744;53.314;5.710;2023-02-01T15:02:21;7.20;99.90
53844;DHT22;39744;53.314;5.710;2023-02-01T15:04:52;7.30;99.90
53844;DHT22;39744;53.314;5.710;2023-02-01T15:07:18;7.20;99.90
53844;DHT22;39744;53.314;5.710;2023-02-01T15:09:44;7.10;99.90
53844;DHT22;39744;53.314;5.710;2023-02-01T15:14:45;7.10;99.90
53844;DHT22;39744;53.314;5.710;2023-02-01T15:19:57;7.30;99.90
53844;DHT22;39744;53.314;5.710;2023-02-01T15:22:22;7.30;99.90
53844;DHT22;39744;53.314;5.710;2023-02-01T15:24:55;7.20;99.90
53844;DHT22;39744;53.314;5.710;2023-02-01T15:27:21;7.30;99.90
53844;DHT22;39744;53.314;5.710;2023-02-01T15:29:47;7.10;99.90
53844;DHT22;39744;53.314;5.710;2023-02-01T15:34:54;7.20;99.90
53844;DHT22;39744;53.314;5.710;2023-02-01T15:37:20;7.20;99.90
53844;DHT22;39744;53.314;5.710;2023-02-01T15:42:34;7.20;99.90
53844;DHT22;39744;53.314;5.710;2023-02-01T15:45:03;7.10;99.90
53844;DHT22;39744;53.314;5.710;2023-02-01T15:47:31;7.10;99.90
53844;DHT22;39744;53.314;5.710;2023-02-01T15:49:57;7.00;99.90
53844;DHT22;39744;53.314;5.710;2023-02-01T15:52:24;7.00;99.90
53844;DHT22;39744;53.314;5.710;2023-02-01T15:55:38;6.90;99.90
53844;DHT22;39744;53.314;5.710;2023-02-01T15:57:39;6.80;99.90
53844;DHT22;39744;53.314;5.710;2023-02-01T16:00:22;6.80;99.90
53844;DHT22;39744;53.314;5.710;2023-02-01T16:02:58;7.00;99.90
53844;DHT22;39744;53.314;5.710;2023-02-01T16:05:37;7.00;99.90
53844;DHT22;39744;53.314;5.710;2023-02-01T16:08:16;7.00;99.90
53844;DHT22;39744;53.314;5.710;2023-02-01T16:10:45;6.90;99.90
53844;DHT22;39744;53.314;5.710;2023-02-01T16:13:11;6.60;99.90
53844;DHT22;39744;53.314;5.710;2023-02-01T16:15:36;6.80;99.90
53844;DHT22;39744;53.314;5.710;2023-02-01T16:18:04;6.60;99.90
53844;DHT22;39744;53.314;5.710;2023-02-01T16:20:29;7.10;99.90
53844;DHT22;39744;53.314;5.710;2023-02-01T16:22:55;6.50;99.90
53844;DHT22;39744;53.314;5.710;2023-02-01T16:25:20;6.70;99.90
53844;DHT22;39744;53.314;5.710;2023-02-01T16:27:46;6.50;99.90
53844;DHT22;39744;53.314;5.710;2023-02-01T16:30:11;6.50;99.90
53844;DHT22;39744;53.314;5.710;2023-02-01T16:32:37;6.80;99.90
53844;DHT22;39744;53.314;5.710;2023-02-01T16:35:05;6.70;99.90
53844;DHT22;39744;53.314;5.710;2023-02-01T16:37:36;6.70;99.90
53844;DHT22;39744;53.314;5.710;2023-02-01T16:40:02;6.70;99.90
53844;DHT22;39744;53.314;5.710;2023-02-01T16:42:27;6.80;99.90
53844;DHT22;39744;53.314;5.710;2023-02-01T16:44:55;6.60;99.90
53844;DHT22;39744;53.314;5.710;2023-02-01T16:47:21;6.50;99.90
53844;DHT22;39744;53.314;5.710;2023-02-01T16:49:47;6.50;99.90
53844;DHT22;39744;53.314;5.710;2023-02-01T16:52:17;6.60;99.90
53844;DHT22;39744;53.314;5.710;2023-02-01T16:54:43;6.70;99.90
53844;DHT22;39744;53.314;5.710;2023-02-01T16:57:13;6.50;99.90
53844;DHT22;39744;53.314;5.710;2023-02-01T16:59:39;6.70;99.90
53844;DHT22;39744;53.314;5.710;2023-02-01T17:02:04;6.50;99.90
53844;DHT22;39744;53.314;5.710;2023-02-01T17:04:30;6.50;99.90
53844;DHT22;39744;53.314;5.710;2023-02-01T17:06:56;6.40;99.90
53844;DHT22;39744;53.314;5.710;2023-02-01T17:09:23;6.60;99.90
53844;DHT22;39744;53.314;5.710;2023-02-01T17:11:50;6.60;99.90
53844;DHT22;39744;53.314;5.710;2023-02-01T17:14:17;6.50;99.90
53844;DHT22;39744;53.314;5.710;2023-02-01T17:16:43;6.50;99.90
53844;DHT22;39744;53.314;5.710;2023-02-01T17:19:11;6.00;99.90
53844;DHT22;39744;53.314;5.710;2023-02-01T17:21:39;6.30;99.90
53844;DHT22;39744;53.314;5.710;2023-02-01T17:24:06;6.80;99.90
53844;DHT22;39744;53.314;5.710;2023-02-01T17:26:31;6.80;99.90
53844;DHT22;39744;53.314;5.710;2023-02-01T17:28:57;6.50;99.90
53844;DHT22;39744;53.314;5.710;2023-02-01T17:31:22;6.50;99.90
53844;DHT22;39744;53.314;5.710;2023-02-01T17:33:48;6.40;99.90
53844;DHT22;39744;53.314;5.710;2023-02-01T17:36:14;6.60;99.90